Pagina principală
METAR-TAF:

METAR-TAF

Aeroporturi :

Grazzanise, Italia

Latitudine: 41-03N, longitudine: 014-04E, elevație: 9 m

Observații meteo curente

Raportul a fost făcut în urmă cu 1 oră și 13 de minute, la 08:55 UTC
Vânt 3 kt de la Est
Temperatură 33°C
Umiditate 56%
Presiune 1014 hPa
Vizibilitate de 10 km sau mai mult
nu există nori sub 1.500 m și nici cumulonimbus

METAR: LIRM 170855Z 10003KT CAVOK 33/23 Q1014 RMK SKC VIS MIN 9999 WIND THR06 33002KT BLU

Ora: 12:08 (10:08 UTC)

Prognoză

Raportul a fost făcut în urmă cu 2 ore și 8 de minute, la 08:00 UTC
Prognoză valabilă de la 17 ora 09 UTC la 17 ora 18 UTC
Vânt 10 kt de la Vest/Sud-vest
Vizibilitate de 10 km sau mai mult
nu există nori sub 1.500 m și nici cumulonimbus

TAF: LIRM 170800Z 1709/1718 24010KT CAVOK

Observații și prognoze meteo pentru peste 4.000 de aeroporturi (rapoarte METAR și TAF).

Stațiile disponibile sunt reprezentate pe hartă prin puncte galbene și roșii.

Țineți indicatorul mouse-ului pe punctul dorit pentru a vedea denumirea stației.

Apoi, faceți clic pentru a vedea observațiile și prognozele meteorologice.

Pentru a schimba harta: Pentru mărire, faceți clic pe butoanele verzi cu cruce neagră; pentru micșorare, pe butonul verde cu o liniuță; pentru hărți învecinate, pe săgețile verzi.


METAR-TAF: